CPC4 weather

Brampton (National D) Heliport
Brampton, Ontario, Canada

Public forecast

Using degrees Celsius for public forecast. Weather courtesy of forecast.io.

Closest aviation weather report (METAR) to Brampton (National D) Heliport

Closest report is Lester B. Pearson International Airport, 9.9 nm (18.3 km) SSE. Retrieved 2020/06/05 12:00 UTC (43 minutes ago):

CYYZ 051200Z VRB02KT 15SM FEW085 FEW220 21/17 A2983 RMK AC1CI1 AC TR SLP099 DENSITY ALT 1500FT

Closest aviation forecast (TAF) to Brampton (National D) Heliport

Closest forecast is Lester B. Pearson International Airport, 9.9 nm (18.3 km) SSE. Retrieved 2020/06/05 12:42 UTC (35 seconds ago):

TAF TAF CYYZ 051139Z 0512/0618 VRB03KT P6SM SCT080 BECMG 0513/0515 24007KT FM051700 22010KT P6SM -SHRA BKN070 PROB30 0518/0521 VRB15G25KT 2SM TSRA BR BKN020 OVC050CB FM052300 24010G20KT P6SM BKN070 FM060600 31010G20KT P6SM FEW070 FM061700 32015G25KT P6SM BKN070 RMK NXT FCST BY 051500Z